Current Weather

Majors

Greenville, Texas (KGVT)

Report from: Saturday, February 24, 2024 1:15 PM CST
Current time: Saturday, February 24, 2024 1:44 PM CST

Nearby weather – Weather history – Daily summaries
Weather forecast

Temperature22.8°C (73.0°F)
Dew point-1.5°C (29.3°F)
Winds 8 kts (4.1 m/s, 9.2 mph) Vrb
Winds variableWinds variable from Southwest (230°) to West-Northwest (290°)
Visibility10 mi. (16.1 km)
Clouds Sky clear
Altimeter30.14 in.Hg (1021 mB)
Relative humidity20 %
Density altitude748 ft. (228 m)
Remarks Fully automated report
Automated weather observing station with precipitation discriminator
Lightning detection system not operating
Flight conditions Visual Meteorological Conditions
Raw dataKGVT 241915Z AUTO 26008KT 230V290 10SM CLR 23/M02 A3014 RMK AO2 TSNO T02281015
An error has occurred. This application may no longer respond until reloaded. Reload 🗙